createdAt,value
2022-08-26T00:00:05.159Z,32.51
2022-08-26T00:00:35.256Z,32.51
2022-08-26T00:01:05.321Z,32.49
2022-08-26T00:01:35.378Z,32.51
2022-08-26T00:02:05.442Z,32.51
2022-08-26T00:02:35.490Z,32.52
2022-08-26T00:03:05.635Z,32.51
2022-08-26T00:03:35.630Z,32.49
2022-08-26T00:04:05.722Z,32.51
2022-08-26T00:04:35.688Z,32.49
2022-08-26T00:05:05.708Z,32.53
2022-08-26T00:05:35.742Z,32.51
2022-08-26T00:06:05.846Z,32.51
2022-08-26T00:06:35.869Z,32.52
2022-08-26T00:07:05.893Z,32.49
2022-08-26T00:07:35.917Z,32.52
2022-08-26T00:08:05.920Z,32.49
2022-08-26T00:08:35.937Z,32.53
2022-08-26T00:09:07.592Z,32.51
2022-08-26T00:09:38.860Z,32.51
2022-08-26T00:10:06.194Z,32.49
2022-08-26T00:10:36.221Z,32.52
2022-08-26T00:11:06.244Z,32.52
2022-08-26T00:11:36.258Z,32.52
2022-08-26T00:12:06.292Z,32.51
2022-08-26T00:12:37.540Z,32.51
2022-08-26T00:13:06.512Z,32.52
2022-08-26T00:13:36.471Z,32.51
2022-08-26T00:14:06.495Z,32.53
2022-08-26T00:14:36.520Z,32.53
2022-08-26T00:15:06.537Z,32.52
2022-08-26T00:15:36.571Z,32.53
2022-08-26T00:16:06.668Z,32.52
2022-08-26T00:16:36.643Z,32.52
2022-08-26T00:17:08.281Z,32.55
2022-08-26T00:17:36.696Z,32.53
2022-08-26T00:18:16.798Z,32.53
2022-08-26T00:18:38.836Z,32.52
2022-08-26T00:19:06.856Z,32.51
2022-08-26T00:19:36.883Z,32.53
2022-08-26T00:20:06.994Z,32.53
2022-08-26T00:20:37.106Z,32.53
2022-08-26T00:21:07.185Z,32.51
2022-08-26T00:21:37.615Z,32.52
2022-08-26T00:22:07.326Z,32.53
2022-08-26T00:22:37.435Z,32.53
2022-08-26T00:23:07.674Z,32.53
2022-08-26T00:23:37.603Z,32.53
2022-08-26T00:24:07.724Z,32.53
2022-08-26T00:24:37.760Z,32.52
2022-08-26T00:25:07.796Z,32.55
2022-08-26T00:25:37.794Z,32.55
2022-08-26T00:26:08.299Z,32.53
2022-08-26T00:26:37.897Z,32.53
2022-08-26T00:27:08.013Z,32.55
2022-08-26T00:27:38.013Z,32.53
2022-08-26T00:28:08.032Z,32.53
2022-08-26T00:28:38.072Z,32.52
2022-08-26T00:29:08.148Z,32.53
2022-08-26T00:29:38.191Z,32.52
2022-08-26T00:30:08.216Z,32.53
2022-08-26T00:30:38.248Z,32.53
2022-08-26T00:31:10.764Z,32.53
2022-08-26T00:31:38.431Z,32.52
2022-08-26T00:32:08.510Z,32.55
2022-08-26T00:32:38.455Z,32.52
2022-08-26T00:33:08.655Z,32.53
2022-08-26T00:33:38.510Z,32.53
2022-08-26T00:34:09.612Z,32.53
2022-08-26T00:34:38.631Z,32.52
2022-08-26T00:35:08.654Z,32.53
2022-08-26T00:35:38.677Z,32.52
2022-08-26T00:36:08.722Z,32.55
2022-08-26T00:36:38.759Z,32.51
2022-08-26T00:37:11.634Z,32.52
2022-08-26T00:37:38.890Z,32.53
2022-08-26T00:38:08.913Z,32.52
2022-08-26T00:38:38.975Z,32.53
2022-08-26T00:39:09.015Z,32.52
2022-08-26T00:39:39.033Z,32.51
2022-08-26T00:40:09.079Z,32.52
2022-08-26T00:40:39.140Z,32.53
2022-08-26T00:41:09.160Z,32.52
2022-08-26T00:41:39.241Z,32.53
2022-08-26T00:42:09.233Z,32.51
2022-08-26T00:42:39.339Z,32.51
2022-08-26T00:43:09.673Z,32.53
2022-08-26T00:43:47.753Z,32.52
2022-08-26T00:44:09.457Z,32.52
2022-08-26T00:44:39.476Z,32.51
2022-08-26T00:45:11.546Z,32.49
2022-08-26T00:45:39.673Z,32.48
2022-08-26T00:46:09.609Z,32.51
2022-08-26T00:46:39.648Z,32.51
2022-08-26T00:47:09.698Z,32.51
2022-08-26T00:47:39.715Z,32.48
2022-08-26T00:48:09.736Z,32.52
2022-08-26T00:48:39.760Z,32.49
2022-08-26T00:49:12.362Z,32.52
2022-08-26T00:49:39.932Z,32.51
2022-08-26T00:50:09.951Z,32.49
2022-08-26T00:50:40.069Z,32.49
2022-08-26T00:51:10.099Z,32.51
2022-08-26T00:51:40.149Z,32.49
2022-08-26T00:52:11.963Z,32.51
2022-08-26T00:52:40.186Z,32.51
2022-08-26T00:53:10.231Z,32.51
2022-08-26T00:53:40.251Z,32.52
2022-08-26T00:54:10.842Z,32.49
2022-08-26T00:54:40.433Z,32.49
2022-08-26T00:55:10.519Z,32.51
2022-08-26T00:55:40.629Z,32.51
2022-08-26T00:56:10.656Z,32.49
2022-08-26T00:56:40.705Z,32.52
2022-08-26T00:57:16.326Z,32.49
2022-08-26T00:57:40.744Z,32.53
2022-08-26T00:58:10.762Z,32.51
2022-08-26T00:58:40.783Z,32.49
2022-08-26T00:59:10.802Z,32.51
2022-08-26T00:59:40.821Z,32.52
2022-08-26T01:00:10.846Z,32.51
2022-08-26T01:00:40.986Z,32.52
2022-08-26T01:01:11.042Z,32.51
2022-08-26T01:01:41.049Z,32.51
2022-08-26T01:02:20.128Z,32.51
2022-08-26T01:02:41.167Z,32.52
2022-08-26T01:03:12.623Z,32.49
2022-08-26T01:03:41.149Z,32.48
2022-08-26T01:04:11.174Z,32.51
2022-08-26T01:04:41.190Z,32.48
2022-08-26T01:05:11.188Z,32.49
2022-08-26T01:05:41.207Z,32.51
2022-08-26T01:06:12.590Z,32.49
2022-08-26T01:06:41.322Z,32.51
2022-08-26T01:07:11.429Z,32.51
2022-08-26T01:07:41.449Z,32.51
2022-08-26T01:08:11.483Z,32.51
2022-08-26T01:08:41.504Z,32.52
2022-08-26T01:09:11.532Z,32.51
2022-08-26T01:09:41.549Z,32.52
2022-08-26T01:10:11.605Z,32.49
2022-08-26T01:10:41.607Z,32.48
2022-08-26T01:11:11.634Z,32.49
2022-08-26T01:11:41.663Z,32.51
2022-08-26T01:12:11.679Z,32.48
2022-08-26T01:12:41.697Z,32.48
2022-08-26T01:13:11.785Z,32.48
2022-08-26T01:13:41.808Z,32.49
2022-08-26T01:14:11.830Z,32.49
2022-08-26T01:14:41.857Z,32.51
2022-08-26T01:15:11.866Z,32.48
2022-08-26T01:15:41.890Z,32.48
2022-08-26T01:16:12.064Z,32.49
2022-08-26T01:16:41.964Z,32.48
2022-08-26T01:17:12.002Z,32.46
2022-08-26T01:17:42.024Z,32.48
2022-08-26T01:18:12.113Z,32.46
2022-08-26T01:18:42.165Z,32.45
2022-08-26T01:19:12.286Z,32.48
2022-08-26T01:19:42.394Z,32.46
2022-08-26T01:20:12.574Z,32.48
2022-08-26T01:20:42.555Z,32.43
2022-08-26T01:21:12.663Z,32.45
2022-08-26T01:21:42.777Z,32.45
2022-08-26T01:22:12.891Z,32.46
2022-08-26T01:22:43.001Z,32.45
2022-08-26T01:23:13.050Z,32.46
2022-08-26T01:23:43.117Z,32.43
2022-08-26T01:24:13.947Z,32.46
2022-08-26T01:24:43.271Z,32.42
2022-08-26T01:25:13.383Z,32.45
2022-08-26T01:25:43.525Z,32.46
2022-08-26T01:26:18.242Z,32.42
2022-08-26T01:26:43.508Z,32.43
2022-08-26T01:27:13.620Z,32.43
2022-08-26T01:27:43.726Z,32.45
2022-08-26T01:28:13.753Z,32.43
2022-08-26T01:28:43.783Z,32.42
2022-08-26T01:29:13.890Z,32.43
2022-08-26T01:29:43.918Z,32.42
2022-08-26T01:30:13.936Z,32.42
2022-08-26T01:30:43.957Z,32.43
2022-08-26T01:31:14.310Z,32.42
2022-08-26T01:31:44.048Z,32.42
2022-08-26T01:32:14.013Z,32.40
2022-08-26T01:32:44.036Z,32.45
2022-08-26T01:33:14.066Z,32.40
2022-08-26T01:33:44.100Z,32.43
2022-08-26T01:34:14.102Z,32.42
2022-08-26T01:34:44.126Z,32.40
2022-08-26T01:35:14.183Z,32.40
2022-08-26T01:35:44.221Z,32.42
2022-08-26T01:36:14.254Z,32.43
2022-08-26T01:36:46.900Z,32.39
2022-08-26T01:37:15.987Z,32.40
2022-08-26T01:37:44.372Z,32.40
2022-08-26T01:38:14.408Z,32.39
2022-08-26T01:38:44.428Z,32.42
2022-08-26T01:39:14.448Z,32.39
2022-08-26T01:39:44.473Z,32.40
2022-08-26T01:40:14.595Z,32.40
2022-08-26T01:40:44.570Z,32.38
2022-08-26T01:41:16.301Z,32.38
2022-08-26T01:41:44.634Z,32.38
2022-08-26T01:42:14.697Z,32.39
2022-08-26T01:42:44.784Z,32.39
2022-08-26T01:43:14.896Z,32.40
2022-08-26T01:43:44.924Z,32.39
2022-08-26T01:44:15.017Z,32.36
2022-08-26T01:44:45.044Z,32.40
2022-08-26T01:45:15.065Z,32.36
2022-08-26T01:45:45.170Z,32.38
2022-08-26T01:46:15.249Z,32.38
2022-08-26T01:46:45.253Z,32.38
2022-08-26T01:47:15.323Z,32.38
2022-08-26T01:47:45.345Z,32.38
2022-08-26T01:48:15.379Z,32.36
2022-08-26T01:48:45.501Z,32.38
2022-08-26T01:49:15.517Z,32.39
2022-08-26T01:49:45.572Z,32.36
2022-08-26T01:50:18.056Z,32.36
2022-08-26T01:50:45.638Z,32.36
2022-08-26T01:51:15.676Z,32.36
2022-08-26T01:51:45.690Z,32.38
2022-08-26T01:52:15.723Z,32.36
2022-08-26T01:52:45.743Z,32.36
2022-08-26T01:53:15.791Z,32.36
2022-08-26T01:53:46.118Z,32.35
2022-08-26T01:54:15.918Z,32.35
2022-08-26T01:54:46.350Z,32.35
2022-08-26T01:55:32.338Z,32.36
2022-08-26T01:55:46.084Z,32.36
2022-08-26T01:56:16.200Z,32.35
2022-08-26T01:56:46.222Z,32.33
2022-08-26T01:57:16.272Z,32.35
2022-08-26T01:57:46.301Z,32.33
2022-08-26T01:58:16.321Z,32.33
2022-08-26T01:58:46.349Z,32.33
2022-08-26T01:59:16.369Z,32.35
2022-08-26T01:59:46.456Z,32.35
2022-08-26T02:00:16.483Z,32.36
2022-08-26T02:00:46.586Z,32.35
2022-08-26T02:01:16.718Z,32.35
2022-08-26T02:01:46.634Z,32.35
2022-08-26T02:02:16.658Z,32.33
2022-08-26T02:02:46.686Z,32.35
2022-08-26T02:03:17.111Z,32.35
2022-08-26T02:03:46.819Z,32.36
2022-08-26T02:04:16.966Z,32.36
2022-08-26T02:04:47.065Z,32.35
2022-08-26T02:05:17.071Z,32.33
2022-08-26T02:05:47.097Z,32.33
2022-08-26T02:06:17.185Z,32.33
2022-08-26T02:06:47.213Z,32.35
2022-08-26T02:07:17.241Z,32.33
2022-08-26T02:07:47.317Z,32.33
2022-08-26T02:08:17.349Z,32.35
2022-08-26T02:08:47.390Z,32.33
2022-08-26T02:09:17.411Z,32.35
2022-08-26T02:09:47.475Z,32.33
2022-08-26T02:10:17.495Z,32.35
2022-08-26T02:10:47.571Z,32.33
2022-08-26T02:11:18.324Z,32.33
2022-08-26T02:11:47.642Z,32.35
2022-08-26T02:12:17.732Z,32.33
2022-08-26T02:12:47.766Z,32.32
2022-08-26T02:13:17.853Z,32.35
2022-08-26T02:13:47.873Z,32.33
2022-08-26T02:14:17.874Z,32.32
2022-08-26T02:14:47.979Z,32.35
2022-08-26T02:15:18.014Z,32.35
2022-08-26T02:15:48.076Z,32.33
2022-08-26T02:16:18.192Z,32.33
2022-08-26T02:16:48.181Z,32.33
2022-08-26T02:17:18.213Z,32.35
2022-08-26T02:17:48.283Z,32.35
2022-08-26T02:18:18.348Z,32.33
2022-08-26T02:18:48.460Z,32.33
2022-08-26T02:19:18.493Z,32.33
2022-08-26T02:19:48.607Z,32.35
2022-08-26T02:20:18.718Z,32.32
2022-08-26T02:20:51.723Z,32.33
2022-08-26T02:21:18.869Z,32.36
2022-08-26T02:21:51.197Z,32.33
2022-08-26T02:22:19.047Z,32.33
2022-08-26T02:22:49.038Z,32.33
2022-08-26T02:23:19.146Z,32.33
2022-08-26T02:23:49.179Z,32.33
2022-08-26T02:24:19.291Z,32.35
2022-08-26T02:24:49.400Z,32.32
2022-08-26T02:25:19.417Z,32.33
2022-08-26T02:25:49.535Z,32.33
2022-08-26T02:26:19.643Z,32.36
2022-08-26T02:26:49.756Z,32.33
2022-08-26T02:27:19.792Z,32.32
2022-08-26T02:27:49.830Z,32.32
2022-08-26T02:28:19.864Z,32.36
2022-08-26T02:28:49.859Z,32.36
2022-08-26T02:29:19.885Z,32.32
2022-08-26T02:29:49.937Z,32.33
2022-08-26T02:30:20.020Z,32.35
2022-08-26T02:30:50.048Z,32.35
2022-08-26T02:31:20.149Z,32.32
2022-08-26T02:31:50.287Z,32.33
2022-08-26T02:32:20.207Z,32.32
2022-08-26T02:32:50.228Z,32.32
2022-08-26T02:33:20.251Z,32.32
2022-08-26T02:33:50.273Z,32.33
2022-08-26T02:34:20.293Z,32.33
2022-08-26T02:34:50.315Z,32.35
2022-08-26T02:35:20.514Z,32.33
2022-08-26T02:35:50.387Z,32.33
2022-08-26T02:36:20.405Z,32.32
2022-08-26T02:36:50.892Z,32.33
2022-08-26T02:37:20.531Z,32.32
2022-08-26T02:37:50.528Z,32.31
2022-08-26T02:38:20.627Z,32.32
2022-08-26T02:38:50.646Z,32.31
2022-08-26T02:39:22.027Z,32.33
2022-08-26T02:39:50.839Z,32.31
2022-08-26T02:40:20.962Z,32.33
2022-08-26T02:40:51.064Z,32.33
2022-08-26T02:41:21.075Z,32.32
2022-08-26T02:41:51.072Z,32.32
2022-08-26T02:42:21.103Z,32.33
2022-08-26T02:42:53.016Z,32.31
2022-08-26T02:43:31.310Z,32.32
2022-08-26T02:43:51.277Z,32.32
2022-08-26T02:44:21.303Z,32.33
2022-08-26T02:44:51.330Z,32.31
2022-08-26T02:45:23.069Z,32.31
2022-08-26T02:45:51.449Z,32.32
2022-08-26T02:46:27.671Z,32.33
2022-08-26T02:46:51.558Z,32.33
2022-08-26T02:47:21.590Z,32.32
2022-08-26T02:47:51.625Z,32.33
2022-08-26T02:48:21.627Z,32.33
2022-08-26T02:48:51.653Z,32.32
2022-08-26T02:49:21.679Z,32.33
2022-08-26T02:49:51.757Z,32.32
2022-08-26T02:50:21.773Z,32.33
2022-08-26T02:50:51.803Z,32.32
2022-08-26T02:51:21.890Z,32.32
2022-08-26T02:51:52.024Z,32.33
2022-08-26T02:52:22.032Z,32.33
2022-08-26T02:52:52.056Z,32.33
2022-08-26T02:53:25.486Z,32.33
2022-08-26T02:53:52.131Z,32.33
2022-08-26T02:54:22.154Z,32.33
2022-08-26T02:54:52.192Z,32.35
2022-08-26T02:55:22.220Z,32.33
2022-08-26T02:55:52.305Z,32.35
2022-08-26T02:56:22.324Z,32.32
2022-08-26T02:56:52.344Z,32.35
2022-08-26T02:57:22.365Z,32.35
2022-08-26T02:57:52.394Z,32.33
2022-08-26T02:58:22.419Z,32.33
2022-08-26T02:58:52.447Z,32.35
2022-08-26T02:59:24.373Z,32.35
2022-08-26T02:59:52.582Z,32.32
2022-08-26T03:00:22.647Z,32.33
2022-08-26T03:00:53.645Z,32.33
2022-08-26T03:01:22.793Z,32.35
2022-08-26T03:01:52.972Z,32.33
2022-08-26T03:02:22.915Z,32.36
2022-08-26T03:02:52.969Z,32.32
2022-08-26T03:03:23.687Z,32.35
2022-08-26T03:03:53.047Z,32.35
2022-08-26T03:04:23.075Z,32.35
2022-08-26T03:04:57.673Z,32.35
2022-08-26T03:05:23.994Z,32.35
2022-08-26T03:05:53.232Z,32.35
2022-08-26T03:06:23.304Z,32.36
2022-08-26T03:06:53.307Z,32.36
2022-08-26T03:07:23.337Z,32.36
2022-08-26T03:07:53.366Z,32.36
2022-08-26T03:08:23.444Z,32.35
2022-08-26T03:08:53.463Z,32.33
2022-08-26T03:09:23.514Z,32.36
2022-08-26T03:09:53.567Z,32.36
2022-08-26T03:10:23.587Z,32.33
2022-08-26T03:10:53.609Z,32.35
2022-08-26T03:11:23.633Z,32.35
2022-08-26T03:11:53.734Z,32.35
2022-08-26T03:12:23.750Z,32.33
2022-08-26T03:12:53.867Z,32.33
2022-08-26T03:13:23.910Z,32.35
2022-08-26T03:13:53.932Z,32.35
2022-08-26T03:14:24.031Z,32.35
2022-08-26T03:14:54.047Z,32.35
2022-08-26T03:15:24.071Z,32.36
2022-08-26T03:15:54.119Z,32.35
2022-08-26T03:16:24.185Z,32.35
2022-08-26T03:16:54.174Z,32.36
2022-08-26T03:17:24.196Z,32.36
2022-08-26T03:17:54.293Z,32.36
2022-08-26T03:18:24.327Z,32.38
2022-08-26T03:18:54.439Z,32.36
2022-08-26T03:19:24.547Z,32.36
2022-08-26T03:19:54.772Z,32.35
2022-08-26T03:20:24.559Z,32.36
2022-08-26T03:20:54.675Z,32.35
2022-08-26T03:21:24.794Z,32.35
2022-08-26T03:21:57.934Z,32.38
2022-08-26T03:22:25.007Z,32.36
2022-08-26T03:22:56.146Z,32.33
2022-08-26T03:23:25.194Z,32.36
2022-08-26T03:23:55.304Z,32.36
2022-08-26T03:24:25.431Z,32.36
2022-08-26T03:24:55.537Z,32.38
2022-08-26T03:25:25.655Z,32.35
2022-08-26T03:25:55.784Z,32.38
2022-08-26T03:26:25.887Z,32.36
2022-08-26T03:26:55.997Z,32.35
2022-08-26T03:27:26.109Z,32.36
2022-08-26T03:27:56.155Z,32.36
2022-08-26T03:28:27.204Z,32.36
2022-08-26T03:28:56.225Z,32.36
2022-08-26T03:29:26.252Z,32.33
2022-08-26T03:29:56.294Z,32.36
2022-08-26T03:30:26.314Z,32.36
2022-08-26T03:30:56.598Z,32.36
2022-08-26T03:31:26.436Z,32.35
2022-08-26T03:31:56.435Z,32.35
2022-08-26T03:32:27.136Z,32.36
2022-08-26T03:32:56.487Z,32.35
2022-08-26T03:33:26.522Z,32.35
2022-08-26T03:33:59.758Z,32.32
2022-08-26T03:34:26.602Z,32.36
2022-08-26T03:34:56.636Z,32.38
2022-08-26T03:35:26.666Z,32.33
2022-08-26T03:35:56.785Z,32.33
2022-08-26T03:36:26.775Z,32.36
2022-08-26T03:36:56.768Z,32.33
2022-08-26T03:37:26.796Z,32.36
2022-08-26T03:37:56.821Z,32.38
2022-08-26T03:38:26.831Z,32.35
2022-08-26T03:38:56.848Z,32.36
2022-08-26T03:39:26.890Z,32.35
2022-08-26T03:39:56.902Z,32.35
2022-08-26T03:40:29.159Z,32.35
2022-08-26T03:40:57.112Z,32.35
2022-08-26T03:41:27.205Z,32.36
2022-08-26T03:41:57.227Z,32.35
2022-08-26T03:42:27.259Z,32.35
2022-08-26T03:42:57.265Z,32.36
2022-08-26T03:43:27.291Z,32.35
2022-08-26T03:44:01.432Z,32.36
2022-08-26T03:44:27.331Z,32.35
2022-08-26T03:44:57.350Z,32.35
2022-08-26T03:45:27.443Z,32.33
2022-08-26T03:45:57.474Z,32.35
2022-08-26T03:46:27.575Z,32.35
2022-08-26T03:46:57.496Z,32.36
2022-08-26T03:47:27.521Z,32.33
2022-08-26T03:47:57.816Z,32.35
2022-08-26T03:48:27.603Z,32.36
2022-08-26T03:48:57.628Z,32.35
2022-08-26T03:49:28.912Z,32.33
2022-08-26T03:49:57.653Z,32.36
2022-08-26T03:50:27.720Z,32.36
2022-08-26T03:50:57.861Z,32.33
2022-08-26T03:51:27.879Z,32.36
2022-08-26T03:51:57.958Z,32.33
2022-08-26T03:52:27.989Z,32.33
2022-08-26T03:52:58.018Z,32.32
2022-08-26T03:53:28.044Z,32.31
2022-08-26T03:53:58.065Z,32.31
2022-08-26T03:54:28.083Z,32.31
2022-08-26T03:54:58.108Z,32.32
2022-08-26T03:55:28.121Z,32.32
2022-08-26T03:55:58.160Z,32.33
2022-08-26T03:56:28.177Z,32.31
2022-08-26T03:56:58.204Z,32.33
2022-08-26T03:57:28.275Z,32.33
2022-08-26T03:57:58.316Z,32.31
2022-08-26T03:58:28.338Z,32.29
2022-08-26T03:58:58.367Z,32.29
2022-08-26T03:59:28.430Z,32.28
2022-08-26T03:59:58.515Z,32.28
2022-08-26T04:00:28.585Z,32.31
2022-08-26T04:00:58.601Z,32.26
2022-08-26T04:01:28.729Z,32.29
2022-08-26T04:01:58.975Z,32.31
2022-08-26T04:02:28.822Z,32.29
2022-08-26T04:02:58.891Z,32.31
2022-08-26T04:03:29.012Z,32.32
2022-08-26T04:04:00.586Z,32.33
2022-08-26T04:04:29.022Z,32.35
2022-08-26T04:04:59.016Z,32.33
2022-08-26T04:05:29.054Z,32.33
2022-08-26T04:05:59.169Z,32.36
2022-08-26T04:06:29.188Z,32.38
2022-08-26T04:06:59.216Z,32.36
2022-08-26T04:07:29.238Z,32.38
2022-08-26T04:07:59.318Z,32.36
2022-08-26T04:08:29.343Z,32.38
2022-08-26T04:08:59.370Z,32.38
2022-08-26T04:09:29.397Z,32.40
2022-08-26T04:09:59.435Z,32.39
2022-08-26T04:10:29.672Z,32.38
2022-08-26T04:10:59.443Z,32.40
2022-08-26T04:11:29.539Z,32.42
2022-08-26T04:11:59.577Z,32.42
2022-08-26T04:12:29.600Z,32.40
2022-08-26T04:12:59.719Z,32.42
2022-08-26T04:13:29.733Z,32.43
2022-08-26T04:13:59.757Z,32.39
2022-08-26T04:14:29.774Z,32.43
2022-08-26T04:14:59.799Z,32.43
2022-08-26T04:15:29.819Z,32.43
2022-08-26T04:15:59.881Z,32.45
2022-08-26T04:16:29.987Z,32.42
2022-08-26T04:17:00.020Z,32.42
2022-08-26T04:17:30.039Z,32.45
2022-08-26T04:18:00.063Z,32.45
2022-08-26T04:18:36.917Z,32.46
2022-08-26T04:19:00.187Z,32.46
2022-08-26T04:19:30.181Z,32.46
2022-08-26T04:20:39.319Z,32.38
2022-08-26T04:21:09.267Z,32.38
2022-08-26T04:21:39.320Z,32.40
2022-08-26T04:22:09.430Z,32.33
2022-08-26T04:22:39.449Z,32.22
2022-08-26T04:23:09.542Z,32.07
2022-08-26T04:23:47.605Z,31.97
2022-08-26T04:24:11.816Z,31.84
2022-08-26T04:24:39.699Z,31.70
2022-08-26T04:25:09.778Z,31.54
2022-08-26T04:25:39.865Z,31.39
2022-08-26T04:26:09.894Z,31.22
2022-08-26T04:26:42.698Z,31.05
2022-08-26T04:27:10.058Z,30.90
2022-08-26T04:27:40.309Z,30.72
2022-08-26T04:28:10.261Z,30.62
2022-08-26T04:28:40.251Z,30.47
2022-08-26T04:29:10.365Z,30.40
2022-08-26T04:29:40.455Z,30.27
2022-08-26T04:30:10.581Z,30.12
2022-08-26T04:30:40.567Z,30.02
2022-08-26T04:31:10.725Z,29.85
2022-08-26T04:31:40.804Z,29.77
2022-08-26T04:32:10.787Z,29.63
2022-08-26T04:33:19.833Z,29.40
2022-08-26T04:33:50.008Z,29.28
2022-08-26T04:34:19.967Z,29.20
2022-08-26T04:34:50.051Z,29.11
2022-08-26T04:35:25.710Z,29.07
2022-08-26T04:35:50.264Z,29.03
2022-08-26T04:36:20.476Z,28.98
2022-08-26T04:36:50.398Z,28.94
2022-08-26T04:37:20.473Z,28.94
2022-08-26T04:37:50.472Z,28.89
2022-08-26T04:38:20.482Z,28.83
2022-08-26T04:38:50.526Z,28.77
2022-08-26T04:39:20.532Z,28.75
2022-08-26T04:39:50.618Z,28.72
2022-08-26T04:40:20.761Z,28.70
2022-08-26T04:40:50.770Z,28.66
2022-08-26T04:41:20.846Z,28.59
2022-08-26T04:41:50.931Z,28.56
2022-08-26T04:42:25.841Z,28.56
2022-08-26T04:42:51.092Z,28.56
2022-08-26T04:43:21.088Z,28.53
2022-08-26T04:43:51.253Z,28.52
2022-08-26T04:44:21.203Z,28.50
2022-08-26T04:44:51.273Z,28.52
2022-08-26T04:45:22.846Z,28.49
2022-08-26T04:45:51.480Z,28.52
2022-08-26T04:46:21.911Z,28.46
2022-08-26T04:46:51.765Z,28.42
2022-08-26T04:47:21.758Z,28.39
2022-08-26T04:47:51.871Z,28.39
2022-08-26T04:48:21.979Z,28.39
2022-08-26T04:48:52.093Z,28.39
2022-08-26T04:49:22.119Z,28.39
2022-08-26T04:49:52.230Z,28.39
2022-08-26T04:50:22.243Z,28.39
2022-08-26T04:50:52.357Z,28.42
2022-08-26T04:51:22.470Z,28.43
2022-08-26T04:51:52.506Z,28.45
2022-08-26T04:52:22.606Z,28.48
2022-08-26T04:52:52.720Z,28.46
2022-08-26T04:53:22.827Z,28.48
2022-08-26T04:53:52.904Z,28.49
2022-08-26T04:54:22.891Z,28.50
2022-08-26T04:54:52.938Z,28.52
2022-08-26T04:55:29.025Z,28.52
2022-08-26T04:55:55.211Z,28.53
2022-08-26T04:56:23.073Z,28.56
2022-08-26T04:56:53.060Z,28.53
2022-08-26T04:57:23.170Z,28.55
2022-08-26T04:57:53.283Z,28.50
2022-08-26T04:58:23.393Z,28.48
2022-08-26T04:58:53.411Z,28.46
2022-08-26T04:59:23.523Z,28.45
2022-08-26T04:59:53.544Z,28.43
2022-08-26T05:00:23.657Z,28.43
2022-08-26T05:00:53.694Z,28.43
2022-08-26T05:01:23.865Z,28.42
2022-08-26T05:01:53.760Z,28.43
2022-08-26T05:02:23.758Z,28.45
2022-08-26T05:02:53.874Z,28.45
2022-08-26T05:03:23.994Z,28.48
2022-08-26T05:03:54.158Z,28.50
2022-08-26T05:04:24.155Z,28.46
2022-08-26T05:04:54.201Z,28.45
2022-08-26T05:05:24.315Z,28.46
2022-08-26T05:05:54.391Z,28.46
2022-08-26T05:06:24.513Z,28.46
2022-08-26T05:06:57.908Z,28.48
2022-08-26T05:07:24.540Z,28.45
2022-08-26T05:07:54.648Z,28.40
2022-08-26T05:08:24.648Z,28.40
2022-08-26T05:08:54.687Z,28.38
2022-08-26T05:09:24.690Z,28.36
2022-08-26T05:09:54.698Z,28.31
2022-08-26T05:10:24.803Z,28.32
2022-08-26T05:10:54.854Z,28.35
2022-08-26T05:11:24.917Z,28.35
2022-08-26T05:11:55.027Z,28.39
2022-08-26T05:12:25.140Z,28.40
2022-08-26T05:12:55.251Z,28.43
2022-08-26T05:13:25.354Z,28.43
2022-08-26T05:13:58.178Z,28.43
2022-08-26T05:14:25.479Z,28.38
2022-08-26T05:14:55.597Z,28.39
2022-08-26T05:15:25.713Z,28.36
2022-08-26T05:16:01.154Z,28.34
2022-08-26T05:16:25.875Z,28.29
2022-08-26T05:16:55.855Z,28.25
2022-08-26T05:17:25.872Z,28.28
2022-08-26T05:17:55.983Z,28.28
2022-08-26T05:18:26.042Z,28.27
2022-08-26T05:18:56.139Z,28.25
2022-08-26T05:19:27.855Z,28.27
2022-08-26T05:19:56.347Z,28.29
2022-08-26T05:20:26.378Z,28.29
2022-08-26T05:20:56.490Z,28.28
2022-08-26T05:21:26.479Z,28.32
2022-08-26T05:21:56.530Z,28.31
2022-08-26T05:22:26.643Z,28.34
2022-08-26T05:22:56.754Z,28.38
2022-08-26T05:23:26.850Z,28.38
2022-08-26T05:23:56.969Z,28.39
2022-08-26T05:24:27.077Z,28.39
2022-08-26T05:24:57.072Z,28.42
2022-08-26T05:25:27.454Z,28.42
2022-08-26T05:26:00.355Z,28.42
2022-08-26T05:26:27.281Z,28.46
2022-08-26T05:26:57.395Z,28.43
2022-08-26T05:27:27.509Z,28.45
2022-08-26T05:27:57.622Z,28.45
2022-08-26T05:28:27.737Z,28.42
2022-08-26T05:28:57.844Z,28.42
2022-08-26T05:29:27.899Z,28.40
2022-08-26T05:29:58.004Z,28.46
2022-08-26T05:30:28.118Z,28.48
2022-08-26T05:30:58.296Z,28.50
2022-08-26T05:31:28.333Z,28.53
2022-08-26T05:31:58.306Z,28.55
2022-08-26T05:32:28.414Z,28.59
2022-08-26T05:32:58.493Z,28.60
2022-08-26T05:33:28.531Z,28.63
2022-08-26T05:33:58.604Z,28.62
2022-08-26T05:34:30.104Z,28.60
2022-08-26T05:34:58.690Z,28.55
2022-08-26T05:35:28.768Z,28.55
2022-08-26T05:35:58.874Z,28.52
2022-08-26T05:36:28.950Z,28.49
2022-08-26T05:36:59.075Z,28.50
2022-08-26T05:37:29.121Z,28.48
2022-08-26T05:37:59.213Z,28.49
2022-08-26T05:38:30.309Z,28.55
2022-08-26T05:38:59.356Z,28.53
2022-08-26T05:39:29.463Z,28.52
2022-08-26T05:39:59.572Z,28.55
2022-08-26T05:40:29.720Z,28.56
2022-08-26T05:40:59.685Z,28.58
2022-08-26T05:41:34.278Z,28.53
2022-08-26T05:41:59.870Z,28.48
2022-08-26T05:42:29.963Z,28.48
2022-08-26T05:43:00.016Z,28.43
2022-08-26T05:43:30.071Z,28.45
2022-08-26T05:44:00.135Z,28.48
2022-08-26T05:44:30.248Z,28.46
2022-08-26T05:45:00.270Z,28.46
2022-08-26T05:45:30.377Z,28.45
2022-08-26T05:46:00.773Z,28.40
2022-08-26T05:46:30.515Z,28.34
2022-08-26T05:47:00.513Z,28.29
2022-08-26T05:47:30.522Z,28.25
2022-08-26T05:48:00.632Z,28.18
2022-08-26T05:48:30.753Z,28.17
2022-08-26T05:49:00.866Z,28.17
2022-08-26T05:49:30.973Z,28.18
2022-08-26T05:50:00.996Z,28.19
2022-08-26T05:50:31.126Z,28.25
2022-08-26T05:51:01.111Z,28.28
2022-08-26T05:51:31.221Z,28.25
2022-08-26T05:52:01.330Z,28.29
2022-08-26T05:52:31.412Z,28.36
2022-08-26T05:53:01.532Z,28.45
2022-08-26T05:53:31.538Z,28.50
2022-08-26T05:54:01.607Z,28.59
2022-08-26T05:54:31.628Z,28.65
2022-08-26T05:55:01.627Z,28.70
2022-08-26T05:55:31.746Z,28.72
2022-08-26T05:56:01.747Z,28.77
2022-08-26T05:56:31.867Z,28.77
2022-08-26T05:57:01.973Z,28.77
2022-08-26T05:57:32.088Z,28.76
2022-08-26T05:58:02.745Z,28.75
2022-08-26T05:58:32.298Z,28.73
2022-08-26T05:59:02.426Z,28.75
2022-08-26T05:59:32.498Z,28.65
2022-08-26T06:00:02.461Z,28.60
2022-08-26T06:00:32.579Z,28.62
2022-08-26T06:01:02.844Z,28.59
2022-08-26T06:01:35.716Z,28.60
2022-08-26T06:02:02.874Z,28.55
2022-08-26T06:02:32.933Z,28.56
2022-08-26T06:03:03.032Z,28.59
2022-08-26T06:03:32.921Z,28.56
2022-08-26T06:04:02.928Z,28.53
2022-08-26T06:04:33.042Z,28.50
2022-08-26T06:05:03.049Z,28.48
2022-08-26T06:05:36.558Z,28.45
2022-08-26T06:06:03.132Z,28.43
2022-08-26T06:06:33.254Z,28.43
2022-08-26T06:07:03.349Z,28.46
2022-08-26T06:07:33.351Z,28.46
2022-08-26T06:08:03.384Z,28.48
2022-08-26T06:08:33.487Z,28.53
2022-08-26T06:09:03.605Z,28.56
2022-08-26T06:09:33.718Z,28.60
2022-08-26T06:10:30.602Z,28.62
2022-08-26T06:10:33.926Z,28.63
2022-08-26T06:11:03.909Z,28.60
2022-08-26T06:11:33.990Z,28.59
2022-08-26T06:12:03.995Z,28.56
2022-08-26T06:12:34.108Z,28.56
2022-08-26T06:13:11.742Z,28.58
2022-08-26T06:13:34.228Z,28.52
2022-08-26T06:14:04.461Z,28.53
2022-08-26T06:14:34.434Z,28.52
2022-08-26T06:15:04.543Z,28.50
2022-08-26T06:15:34.632Z,28.46
2022-08-26T06:16:04.843Z,28.48
2022-08-26T06:16:34.833Z,28.48
2022-08-26T06:17:04.727Z,28.46
2022-08-26T06:17:34.837Z,28.42
2022-08-26T06:18:04.876Z,28.40
2022-08-26T06:18:35.493Z,28.46
2022-08-26T06:19:10.441Z,28.49
2022-08-26T06:19:35.019Z,28.49
2022-08-26T06:20:05.129Z,28.52
2022-08-26T06:20:35.255Z,28.50
2022-08-26T06:21:05.364Z,28.48
2022-08-26T06:21:35.412Z,28.48
2022-08-26T06:22:05.464Z,28.45
2022-08-26T06:22:35.474Z,28.45
2022-08-26T06:23:05.611Z,28.49
2022-08-26T06:23:35.606Z,28.50
2022-08-26T06:24:05.721Z,28.52
2022-08-26T06:24:35.836Z,28.53
2022-08-26T06:25:05.839Z,28.53
2022-08-26T06:25:35.961Z,28.58
2022-08-26T06:26:05.971Z,28.62
2022-08-26T06:26:36.622Z,28.59
2022-08-26T06:27:06.117Z,28.58
2022-08-26T06:27:36.236Z,28.63
2022-08-26T06:28:06.261Z,28.65